Time;durP1;ratioP1;P1;durP2;ratioP2;P2;SDS_P1;SDS_P2;PMS_P1;PMS_P2;Temp;Humidity;BMP_temperature;BMP_pressure;BME280_temperature;BME280_humidity;BME280_pressure;Samples;Min_cycle;Max_cycle;Signal;HPM_P1;HPM_P2
2023/08/07 00:01:49;;;;;;;3.85;2.63;;;15.40;99.90;;;;;;5015739;28;20208;-68
2023/08/07 00:04:16;;;;;;;6.35;2.83;;;15.40;99.90;;;;;;5031270;28;20229;-68
2023/08/07 00:06:44;;;;;;;5.30;2.75;;;15.40;99.90;;;;;;5030646;28;20197;-68
2023/08/07 00:09:11;;;;;;;5.88;3.05;;;15.40;99.90;;;;;;5033143;28;20193;-67
2023/08/07 00:11:38;;;;;;;3.88;2.85;;;15.30;99.90;;;;;;5009566;28;20202;-69
2023/08/07 00:14:04;;;;;;;4.40;3.25;;;15.30;99.90;;;;;;5029798;28;20236;-68
2023/08/07 00:16:31;;;;;;;4.63;2.83;;;15.30;99.90;;;;;;5029399;28;20221;-71
2023/08/07 00:18:58;;;;;;;4.55;2.65;;;15.40;99.90;;;;;;5031151;28;20204;-68
2023/08/07 00:21:25;;;;;;;5.30;2.72;;;15.40;99.90;;;;;;5025458;28;20197;-68
2023/08/07 00:23:54;;;;;;;4.28;2.90;;;15.40;99.90;;;;;;5028987;28;20202;-68
2023/08/07 00:26:21;;;;;;;5.93;2.90;;;15.40;99.90;;;;;;5014473;28;20797;-68
2023/08/07 00:28:48;;;;;;;6.35;2.95;;;15.40;99.90;;;;;;5029565;28;20224;-68
2023/08/07 00:31:15;;;;;;;6.88;3.33;;;15.40;99.90;;;;;;5031561;28;20207;-68
2023/08/07 00:33:42;;;;;;;7.00;3.22;;;15.40;99.90;;;;;;5031042;28;20229;-68
2023/08/07 00:36:09;;;;;;;6.22;3.60;;;15.40;99.90;;;;;;5032005;28;21094;-68
2023/08/07 00:38:36;;;;;;;5.97;3.17;;;15.40;99.90;;;;;;5023229;28;20288;-70
2023/08/07 00:41:07;;;;;;;3.67;3.03;;;15.40;99.90;;;;;;5010635;28;20201;-68
2023/08/07 00:43:34;;;;;;;5.03;3.10;;;15.40;99.90;;;;;;5029358;28;20292;-68
2023/08/07 00:46:00;;;;;;;6.40;3.60;;;15.30;99.90;;;;;;5035781;28;20204;-68
2023/08/07 00:48:27;;;;;;;6.05;3.38;;;15.40;99.90;;;;;;5031928;28;20201;-68
2023/08/07 00:50:55;;;;;;;3.97;3.30;;;15.30;99.90;;;;;;5036467;28;20200;-68
2023/08/07 00:53:22;;;;;;;6.35;3.65;;;15.40;99.90;;;;;;5027152;28;20223;-68
2023/08/07 00:55:49;;;;;;;5.55;3.55;;;15.40;99.90;;;;;;5034371;28;20308;-68
2023/08/07 00:58:18;;;;;;;4.97;3.10;;;15.40;99.90;;;;;;5011463;28;20237;-68
2023/08/07 01:00:45;;;;;;;11.13;3.45;;;15.40;99.90;;;;;;5030117;28;20206;-68
2023/08/07 01:03:13;;;;;;;5.35;3.00;;;15.30;99.90;;;;;;5034266;28;20226;-68
2023/08/07 01:05:40;;;;;;;5.35;3.42;;;15.20;99.90;;;;;;5031496;28;20208;-68
2023/08/07 01:08:07;;;;;;;6.07;3.67;;;15.20;99.90;;;;;;5037108;28;20229;-68
2023/08/07 01:10:43;;;;;;;4.10;3.13;;;15.20;99.90;;;;;;5029138;28;20221;-68
2023/08/07 01:13:19;;;;;;;4.30;2.70;;;15.20;99.90;;;;;;5014292;28;20209;-68
2023/08/07 01:15:50;;;;;;;7.13;3.20;;;15.20;99.90;;;;;;5027839;28;20190;-68
2023/08/07 01:18:17;;;;;;;4.70;2.92;;;15.10;99.90;;;;;;5035336;28;20225;-68
2023/08/07 01:20:44;;;;;;;4.97;3.00;;;15.20;99.90;;;;;;5034302;28;20209;-68
2023/08/07 01:23:12;;;;;;;9.98;3.42;;;15.10;99.90;;;;;;5034895;28;20205;-68
2023/08/07 01:25:39;;;;;;;9.68;3.50;;;15.20;99.90;;;;;;5026143;28;20201;-68
2023/08/07 01:28:17;;;;;;;9.38;3.88;;;15.10;99.90;;;;;;5014190;28;20275;-68
2023/08/07 01:30:50;;;;;;;5.63;3.03;;;15.10;99.90;;;;;;5032744;28;20199;-68
2023/08/07 01:33:25;;;;;;;4.68;3.70;;;15.10;99.90;;;;;;5032519;28;20208;-68
2023/08/07 01:35:56;;;;;;;6.60;2.83;;;15.00;99.90;;;;;;5034451;28;20196;-67
2023/08/07 01:38:26;;;;;;;7.38;3.53;;;15.00;99.90;;;;;;5034738;28;20621;-68
2023/08/07 01:40:54;;;;;;;5.55;3.17;;;15.00;99.90;;;;;;5027043;28;20202;-68
2023/08/07 01:43:21;;;;;;;7.65;3.70;;;15.00;99.90;;;;;;5012815;28;20210;-68
2023/08/07 01:45:47;;;;;;;4.80;3.50;;;15.00;99.90;;;;;;5033099;28;20675;-67
2023/08/07 01:48:14;;;;;;;4.07;3.20;;;15.00;99.90;;;;;;5036424;28;20208;-68
2023/08/07 01:50:41;;;;;;;5.68;3.88;;;15.00;99.90;;;;;;5030776;28;20198;-68
2023/08/07 01:53:08;;;;;;;4.32;3.20;;;15.00;99.90;;;;;;5030582;28;20208;-68
2023/08/07 01:55:36;;;;;;;8.07;3.40;;;15.00;99.90;;;;;;5031951;28;20221;-68
2023/08/07 01:58:03;;;;;;;5.60;3.42;;;14.90;99.90;;;;;;5035006;28;20272;-68
2023/08/07 02:00:30;;;;;;;4.13;3.10;;;15.00;99.90;;;;;;5006152;28;20213;-69
2023/08/07 02:02:56;;;;;;;4.78;3.35;;;15.00;99.90;;;;;;5034935;28;20257;-67
2023/08/07 02:05:23;;;;;;;10.65;3.72;;;15.00;99.90;;;;;;5034029;28;20588;-69
2023/08/07 02:07:50;;;;;;;4.97;3.08;;;14.90;99.90;;;;;;5028212;28;20218;-68
2023/08/07 02:10:17;;;;;;;4.28;3.50;;;15.00;99.90;;;;;;5033628;28;20754;-68
2023/08/07 02:12:45;;;;;;;4.50;2.97;;;15.10;99.90;;;;;;5025342;28;20205;-68
2023/08/07 02:15:12;;;;;;;7.05;3.15;;;15.10;99.90;;;;;;5013939;28;20206;-68
2023/08/07 02:17:40;;;;;;;8.88;3.42;;;14.90;99.90;;;;;;5032090;28;20225;-68
2023/08/07 02:20:08;;;;;;;10.48;3.72;;;15.00;99.90;;;;;;5035570;28;20193;-68
2023/08/07 02:22:35;;;;;;;5.53;3.38;;;15.00;99.90;;;;;;5030768;28;20202;-70
2023/08/07 02:25:02;;;;;;;6.75;2.88;;;15.10;99.90;;;;;;5036188;28;20201;-68
2023/08/07 02:27:29;;;;;;;5.68;3.33;;;14.90;99.90;;;;;;5032203;28;20214;-68
2023/08/07 02:29:57;;;;;;;5.28;3.17;;;15.00;99.90;;;;;;5011387;28;20206;-68
2023/08/07 02:32:23;;;;;;;6.18;3.10;;;15.10;99.90;;;;;;5032101;28;20195;-68
2023/08/07 02:34:50;;;;;;;3.63;2.75;;;15.10;99.90;;;;;;5030028;28;20205;-68
2023/08/07 02:37:17;;;;;;;5.75;2.97;;;15.10;99.90;;;;;;5030516;28;20311;-68
2023/08/07 02:39:44;;;;;;;9.75;2.95;;;15.10;99.90;;;;;;5033619;28;20198;-68
2023/08/07 02:42:10;;;;;;;8.10;3.10;;;15.10;99.90;;;;;;5037154;28;20205;-68
2023/08/07 02:44:37;;;;;;;9.68;4.13;;;15.10;99.90;;;;;;5006397;28;20213;-68
2023/08/07 02:47:07;;;;;;;3.67;2.78;;;15.00;99.90;;;;;;5032291;28;20213;-68
2023/08/07 02:49:33;;;;;;;6.28;3.10;;;15.20;99.90;;;;;;5033153;28;20201;-68
2023/08/07 02:52:00;;;;;;;4.40;3.03;;;15.20;99.90;;;;;;5034137;28;20206;-68
2023/08/07 02:54:27;;;;;;;5.65;3.10;;;;;;;;;;5033924;28;20220;-68
2023/08/07 02:56:54;;;;;;;4.88;3.08;;;15.20;99.90;;;;;;5030355;28;20226;-68
2023/08/07 02:59:21;;;;;;;6.50;2.90;;;;;;;;;;5029884;28;20693;-69
2023/08/07 03:01:48;;;;;;;5.35;2.60;;;15.20;99.90;;;;;;5008114;28;20202;-68
2023/08/07 03:04:16;;;;;;;5.82;3.08;;;15.20;99.90;;;;;;5034968;28;20574;-68
2023/08/07 03:06:43;;;;;;;7.82;3.13;;;15.10;99.90;;;;;;5032273;28;20193;-70
2023/08/07 03:09:10;;;;;;;5.60;2.88;;;15.10;99.90;;;;;;5034673;28;20208;-68
2023/08/07 03:11:37;;;;;;;3.88;2.65;;;15.10;99.90;;;;;;5031336;28;20208;-68
2023/08/07 03:14:04;;;;;;;3.03;2.53;;;15.10;99.90;;;;;;5024504;28;20237;-68
2023/08/07 03:16:30;;;;;;;4.22;3.00;;;15.60;99.90;;;;;;5009393;28;20210;-68
2023/08/07 03:18:58;;;;;;;5.30;3.08;;;15.20;99.90;;;;;;5035479;28;20240;-68
2023/08/07 03:21:26;;;;;;;3.00;2.70;;;15.10;99.90;;;;;;5029950;28;20674;-68
2023/08/07 03:23:53;;;;;;;6.95;2.88;;;15.20;99.90;;;;;;5031583;28;20212;-68
2023/08/07 03:26:20;;;;;;;2.83;2.58;;;15.20;99.90;;;;;;5029358;28;20487;-68
2023/08/07 03:28:48;;;;;;;6.03;2.65;;;15.20;99.90;;;;;;5028779;28;20224;-68
2023/08/07 03:31:15;;;;;;;3.95;2.58;;;15.20;99.90;;;;;;5034744;28;20205;-68
2023/08/07 03:33:42;;;;;;;3.17;2.30;;;15.20;99.90;;;;;;5009956;28;20209;-68
2023/08/07 03:36:09;;;;;;;4.85;2.30;;;15.20;99.90;;;;;;5032819;28;20212;-68
2023/08/07 03:38:37;;;;;;;7.28;2.40;;;15.20;99.90;;;;;;5033520;28;20744;-68
2023/08/07 03:41:04;;;;;;;5.80;2.00;;;15.20;99.90;;;;;;5034021;28;20327;-68
2023/08/07 03:43:31;;;;;;;6.13;2.13;;;15.10;99.90;;;;;;5030403;28;20221;-68
2023/08/07 03:45:57;;;;;;;2.63;1.80;;;15.10;99.90;;;;;;5025402;28;20275;-67
2023/08/07 03:48:24;;;;;;;3.55;1.70;;;;;;;;;;5010454;28;20206;-68
2023/08/07 03:50:51;;;;;;;5.18;2.00;;;15.00;99.90;;;;;;5028711;28;20198;-68
2023/08/07 03:53:18;;;;;;;2.17;1.60;;;15.00;99.90;;;;;;5032998;28;20201;-67
2023/08/07 03:55:51;;;;;;;2.72;1.60;;;15.00;99.90;;;;;;5029087;28;20213;-67
2023/08/07 03:58:18;;;;;;;1.60;1.23;;;15.00;99.90;;;;;;5035741;28;20225;-67
2023/08/07 04:00:45;;;;;;;2.72;1.58;;;15.00;99.90;;;;;;5026006;28;20198;-67
2023/08/07 04:03:12;;;;;;;2.58;1.80;;;15.00;99.90;;;;;;5016489;28;20240;-68
2023/08/07 04:05:38;;;;;;;3.22;1.70;;;14.90;99.90;;;;;;5027192;28;20194;-68
2023/08/07 04:08:05;;;;;;;2.33;1.50;;;14.90;99.90;;;;;;5032473;28;20204;-68
2023/08/07 04:10:32;;;;;;;2.50;1.70;;;14.80;99.90;;;;;;5030594;28;20225;-68
2023/08/07 04:13:01;;;;;;;3.35;1.70;;;14.80;99.90;;;;;;5030829;28;20202;-68
2023/08/07 04:15:27;;;;;;;1.58;1.30;;;14.80;99.90;;;;;;5028958;28;20202;-68
2023/08/07 04:17:54;;;;;;;3.15;1.20;;;14.80;99.90;;;;;;5008175;28;20229;-68
2023/08/07 04:20:21;;;;;;;1.30;1.20;;;;;;;;;;5036108;28;20697;-68
2023/08/07 04:22:48;;;;;;;2.53;1.20;;;14.70;99.90;;;;;;5036909;28;20192;-67
2023/08/07 04:25:15;;;;;;;1.52;1.33;;;14.70;99.90;;;;;;5040207;28;20200;-67
2023/08/07 04:27:42;;;;;;;1.95;1.15;;;14.70;99.90;;;;;;5027920;28;20197;-67
2023/08/07 04:30:11;;;;;;;6.78;1.50;;;14.70;99.90;;;;;;5030629;28;20198;-67
2023/08/07 04:32:38;;;;;;;1.50;1.38;;;;;;;;;;5024076;28;20824;-68
2023/08/07 04:35:06;;;;;;;3.17;1.73;;;14.60;99.90;;;;;;5009994;28;20236;-67
2023/08/07 04:37:33;;;;;;;2.03;1.45;;;14.70;99.90;;;;;;5031420;28;20593;-68
2023/08/07 04:40:00;;;;;;;1.50;1.25;;;14.70;99.90;;;;;;5031802;28;20208;-67
2023/08/07 04:42:27;;;;;;;5.15;1.85;;;14.70;99.90;;;;;;5031247;28;20841;-68
2023/08/07 04:44:54;;;;;;;2.15;1.50;;;14.60;99.90;;;;;;5031140;28;20820;-68
2023/08/07 04:47:22;;;;;;;4.00;1.58;;;14.70;99.90;;;;;;5028643;28;21241;-68
2023/08/07 04:49:49;;;;;;;2.40;1.33;;;14.60;99.90;;;;;;5011693;28;20214;-67
2023/08/07 04:52:15;;;;;;;2.35;1.50;;;14.60;99.90;;;;;;5031572;28;20208;-67
2023/08/07 04:54:42;;;;;;;5.10;1.50;;;14.60;99.90;;;;;;5027582;28;20224;-68
2023/08/07 04:57:09;;;;;;;0.90;0.85;;;14.60;99.90;;;;;;5029711;28;20663;-68
2023/08/07 04:59:36;;;;;;;4.30;1.58;;;14.60;99.90;;;;;;5030546;28;20582;-68
2023/08/07 05:02:03;;;;;;;2.42;1.15;;;14.60;99.90;;;;;;5030177;28;20194;-67
2023/08/07 05:04:31;;;;;;;3.35;1.20;;;14.50;99.90;;;;;;5021472;28;20231;-67
2023/08/07 05:06:57;;;;;;;1.80;1.13;;;14.70;99.90;;;;;;5023701;28;20706;-67
2023/08/07 05:09:24;;;;;;;5.85;1.73;;;15.20;99.90;;;;;;5027474;28;20701;-68
2023/08/07 05:11:51;;;;;;;5.95;1.40;;;14.70;99.90;;;;;;5034240;28;20216;-67
2023/08/07 05:14:18;;;;;;;4.53;1.30;;;14.70;99.90;;;;;;5031097;28;20205;-72
2023/08/07 05:16:45;;;;;;;7.20;1.40;;;14.70;99.90;;;;;;5033773;28;20207;-68
2023/08/07 05:19:11;;;;;;;2.50;1.30;;;14.80;99.90;;;;;;5026919;28;20231;-68
2023/08/07 05:21:39;;;;;;;3.00;1.20;;;14.80;99.90;;;;;;5015117;28;20210;-68
2023/08/07 05:24:06;;;;;;;4.80;1.42;;;14.80;99.90;;;;;;5034970;28;20193;-68
2023/08/07 05:26:33;;;;;;;2.85;1.17;;;14.80;99.90;;;;;;5032032;28;20946;-68
2023/08/07 05:29:00;;;;;;;3.83;1.50;;;14.80;99.90;;;;;;5033210;28;20210;-68
2023/08/07 05:31:26;;;;;;;2.95;1.30;;;14.80;99.90;;;;;;5033031;28;20202;-68
2023/08/07 05:33:53;;;;;;;4.53;1.10;;;14.80;99.90;;;;;;5031654;28;20193;-69
2023/08/07 05:36:20;;;;;;;2.60;1.13;;;13.20;99.90;;;;;;5013139;28;20194;-68
2023/08/07 05:38:48;;;;;;;6.78;2.03;;;14.80;99.90;;;;;;5032180;28;20664;-68
2023/08/07 05:41:16;;;;;;;5.40;1.50;;;14.70;99.90;;;;;;5033466;28;20197;-68
2023/08/07 05:43:42;;;;;;;3.50;1.33;;;14.70;99.90;;;;;;5035501;28;20198;-68
2023/08/07 05:46:09;;;;;;;2.60;1.45;;;14.80;99.90;;;;;;5029102;28;20194;-68
2023/08/07 05:48:36;;;;;;;1.42;1.27;;;15.20;99.90;;;;;;5027329;28;20202;-68
2023/08/07 05:51:03;;;;;;;7.55;1.50;;;13.50;99.90;;;;;;5036753;28;20216;-68
2023/08/07 05:53:30;;;;;;;7.85;1.50;;;14.80;99.90;;;;;;5012153;28;20441;-68
2023/08/07 05:55:58;;;;;;;6.18;1.70;;;14.90;99.90;;;;;;5028925;28;20217;-68
2023/08/07 05:58:25;;;;;;;3.78;1.20;;;14.90;99.90;;;;;;5026730;28;20237;-68
2023/08/07 06:00:51;;;;;;;6.22;1.95;;;14.90;99.90;;;;;;5031178;28;20205;-68
2023/08/07 06:03:18;;;;;;;5.15;1.40;;;14.90;99.90;;;;;;5029830;28;20271;-68
2023/08/07 06:05:45;;;;;;;3.03;1.33;;;14.90;99.90;;;;;;5026987;28;20202;-68
2023/08/07 06:08:12;;;;;;;6.75;1.60;;;15.00;99.90;;;;;;5009418;28;20224;-68
2023/08/07 06:10:38;;;;;;;4.05;1.63;;;15.00;99.90;;;;;;5032501;28;20202;-68
2023/08/07 06:13:08;;;;;;;2.92;1.60;;;15.20;99.90;;;;;;5032271;28;20308;-68
2023/08/07 06:15:35;;;;;;;7.18;1.73;;;15.30;99.90;;;;;;5030496;28;20197;-68
2023/08/07 06:18:02;;;;;;;3.65;1.40;;;15.40;99.90;;;;;;5034019;28;20241;-68
2023/08/07 06:20:28;;;;;;;5.63;1.83;;;15.30;99.90;;;;;;5027690;28;20193;-68
2023/08/07 06:22:55;;;;;;;5.35;1.98;;;15.30;99.90;;;;;;5012682;28;20210;-68
2023/08/07 06:25:22;;;;;;;12.35;2.00;;;15.20;99.90;;;;;;5028942;28;20212;-68
2023/08/07 06:27:49;;;;;;;3.28;1.52;;;15.20;99.90;;;;;;5034530;28;20899;-68
2023/08/07 06:30:17;;;;;;;4.50;1.63;;;15.10;99.90;;;;;;5031844;28;20208;-68
2023/08/07 06:32:44;;;;;;;6.88;1.95;;;15.20;99.90;;;;;;5036249;28;20659;-68
2023/08/07 06:35:11;;;;;;;5.93;1.73;;;15.10;99.90;;;;;;5031913;28;20574;-68
2023/08/07 06:37:38;;;;;;;5.57;1.95;;;15.10;99.90;;;;;;5009294;28;20214;-68
2023/08/07 06:40:05;;;;;;;5.10;2.17;;;15.30;99.90;;;;;;5033114;28;20226;-68
2023/08/07 06:42:32;;;;;;;4.88;2.13;;;15.20;99.90;;;;;;5026940;28;20212;-68
2023/08/07 06:44:59;;;;;;;8.77;2.15;;;15.20;99.90;;;;;;5035718;28;20201;-68
2023/08/07 06:47:27;;;;;;;4.80;2.42;;;15.30;99.90;;;;;;5031552;28;20198;-68
2023/08/07 06:49:54;;;;;;;4.40;2.17;;;15.30;99.90;;;;;;5031697;28;20202;-68
2023/08/07 06:52:20;;;;;;;4.22;2.00;;;15.50;99.90;;;;;;5009771;28;20292;-69
2023/08/07 06:54:47;;;;;;;8.63;2.13;;;15.50;99.90;;;;;;5031371;28;20214;-68
2023/08/07 06:57:14;;;;;;;13.45;2.78;;;15.50;99.90;;;;;;5030704;28;21017;-68
2023/08/07 06:59:41;;;;;;;5.00;3.25;;;15.50;99.90;;;;;;5035165;28;20827;-68
2023/08/07 07:02:07;;;;;;;4.45;2.05;;;15.60;99.90;;;;;;5033092;28;20208;-68
2023/08/07 07:04:36;;;;;;;11.40;2.42;;;15.70;99.90;;;;;;5032401;28;20666;-68
2023/08/07 07:07:03;;;;;;;18.02;2.63;;;15.70;99.90;;;;;;5035508;28;20213;-68
2023/08/07 07:09:30;;;;;;;11.00;2.78;;;15.70;99.90;;;;;;5004951;28;20211;-68
2023/08/07 07:11:57;;;;;;;8.00;2.25;;;15.80;99.90;;;;;;5032657;28;20194;-68
2023/08/07 07:14:24;;;;;;;6.88;2.58;;;15.70;99.90;;;;;;5028167;28;20201;-68
2023/08/07 07:16:51;;;;;;;11.02;2.78;;;15.70;99.90;;;;;;5035957;28;20215;-68
2023/08/07 07:19:20;;;;;;;8.05;2.72;;;15.70;99.90;;;;;;5033324;28;20240;-68
2023/08/07 07:21:48;;;;;;;12.27;3.15;;;15.80;99.90;;;;;;5030501;28;20952;-68
2023/08/07 07:24:14;;;;;;;11.43;3.33;;;15.70;99.90;;;;;;5009404;28;20221;-68
2023/08/07 07:26:41;;;;;;;5.75;2.42;;;15.80;99.90;;;;;;5032763;28;20201;-68
2023/08/07 07:29:08;;;;;;;11.30;2.92;;;16.30;99.90;;;;;;5035019;28;20208;-68
2023/08/07 07:31:35;;;;;;;12.02;2.83;;;15.90;99.90;;;;;;5033098;28;20197;-68
2023/08/07 07:34:02;;;;;;;9.50;2.63;;;15.90;99.90;;;;;;5031036;28;20249;-68
2023/08/07 07:36:30;;;;;;;9.75;2.72;;;16.10;99.90;;;;;;5026383;28;20200;-68
2023/08/07 07:38:58;;;;;;;11.40;2.80;;;16.10;99.90;;;;;;5031621;28;20702;-67
2023/08/07 07:41:25;;;;;;;11.05;2.40;;;16.20;99.90;;;;;;5011125;28;20293;-67
2023/08/07 07:43:51;;;;;;;5.40;2.47;;;16.20;99.90;;;;;;5028596;28;20786;-67
2023/08/07 07:46:19;;;;;;;6.88;2.60;;;;;;;;;;5026803;28;20263;-68
2023/08/07 07:48:45;;;;;;;6.65;2.45;;;16.20;99.90;;;;;;5029510;28;20202;-67
2023/08/07 07:51:12;;;;;;;9.38;2.63;;;16.10;99.90;;;;;;5035511;28;20539;-67
2023/08/07 07:53:39;;;;;;;8.43;2.17;;;16.00;99.90;;;;;;5033084;28;20193;-67
2023/08/07 07:56:07;;;;;;;6.60;2.03;;;16.00;99.90;;;;;;5012964;28;20725;-67
2023/08/07 07:58:34;;;;;;;7.13;2.33;;;16.10;99.90;;;;;;5032500;28;20229;-67
2023/08/07 08:01:01;;;;;;;8.57;2.00;;;16.00;99.90;;;;;;5027739;28;20267;-67
2023/08/07 08:03:28;;;;;;;12.90;2.30;;;16.00;99.90;;;;;;5032057;28;20229;-67
2023/08/07 08:05:55;;;;;;;8.98;2.95;;;16.20;99.90;;;;;;5026705;28;20627;-67
2023/08/07 08:08:21;;;;;;;5.38;2.00;;;16.20;99.90;;;;;;5036411;28;20202;-67
2023/08/07 08:10:48;;;;;;;5.63;2.40;;;16.30;99.90;;;;;;5010405;28;20201;-67
2023/08/07 08:13:16;;;;;;;7.70;2.30;;;16.30;99.90;;;;;;5030886;28;20198;-67
2023/08/07 08:15:44;;;;;;;11.50;2.17;;;16.50;99.90;;;;;;5031871;28;20201;-67
2023/08/07 08:18:11;;;;;;;8.60;2.05;;;16.50;99.90;;;;;;5033017;28;20208;-67
2023/08/07 08:20:38;;;;;;;6.70;1.70;;;16.40;99.90;;;;;;5029243;28;20229;-67
2023/08/07 08:23:05;;;;;;;6.55;1.80;;;16.30;99.90;;;;;;5030039;28;20201;-67
2023/08/07 08:25:32;;;;;;;6.50;2.28;;;15.70;99.90;;;;;;5009769;28;20222;-67
2023/08/07 08:28:00;;;;;;;4.15;1.52;;;15.90;99.90;;;;;;5034253;28;20784;-67
2023/08/07 08:30:29;;;;;;;7.55;2.55;;;15.90;99.90;;;;;;5034841;28;20241;-66
2023/08/07 08:32:56;;;;;;;9.18;2.40;;;15.60;99.90;;;;;;5019453;28;20212;-67
2023/08/07 08:35:23;;;;;;;9.80;1.95;;;15.60;99.90;;;;;;5033555;28;20313;-67
2023/08/07 08:37:49;;;;;;;13.40;2.13;;;15.60;99.90;;;;;;5030843;28;20221;-68
2023/08/07 08:40:19;;;;;;;10.68;2.10;;;15.50;99.90;;;;;;5030598;28;20228;-67
2023/08/07 08:42:46;;;;;;;10.13;2.88;;;15.70;99.90;;;;;;5007771;28;20218;-67
2023/08/07 08:45:14;;;;;;;6.70;2.05;;;16.70;99.90;;;;;;5029122;28;20744;-67
2023/08/07 08:47:45;;;;;;;13.10;2.83;;;15.90;99.90;;;;;;5024670;28;20202;-72
2023/08/07 08:50:14;;;;;;;10.88;2.67;;;15.90;99.90;;;;;;5027575;28;20197;-67
2023/08/07 08:52:43;;;;;;;13.38;2.83;;;15.80;99.90;;;;;;5027253;28;20252;-67
2023/08/07 08:55:11;;;;;;;7.35;2.50;;;15.70;99.90;;;;;;5030666;28;20224;-67
2023/08/07 08:57:39;;;;;;;9.70;2.63;;;15.20;99.90;;;;;;5012019;28;20216;-66
2023/08/07 09:00:17;;;;;;;10.85;2.67;;;14.90;99.90;;;;;;5025604;28;20256;-67
2023/08/07 09:02:47;;;;;;;10.50;3.00;;;15.20;99.90;;;;;;5023151;28;20205;-67
2023/08/07 09:05:16;;;;;;;7.97;2.60;;;15.20;99.90;;;;;;5034527;28;20198;-67
2023/08/07 09:07:43;;;;;;;8.10;2.45;;;;;;;;;;5031027;28;20206;-67
2023/08/07 09:10:12;;;;;;;9.52;2.38;;;15.40;99.90;;;;;;5031952;28;20243;-67
2023/08/07 09:12:46;;;;;;;11.45;3.13;;;15.80;99.90;;;;;;5019548;28;20209;-67
2023/08/07 09:15:17;;;;;;;5.97;2.63;;;15.80;99.90;;;;;;5034110;28;20204;-67
2023/08/07 09:17:46;;;;;;;5.20;2.40;;;16.20;99.90;;;;;;5024119;28;20216;-67
2023/08/07 09:20:14;;;;;;;8.20;2.50;;;16.30;99.90;;;;;;5033995;28;20605;-66
2023/08/07 09:22:42;;;;;;;13.40;2.15;;;16.30;99.90;;;;;;5035316;28;20201;-71
2023/08/07 09:25:10;;;;;;;7.18;2.20;;;16.40;99.90;;;;;;5030651;28;20204;-66
2023/08/07 09:27:39;;;;;;;5.07;2.00;;;16.60;99.90;;;;;;5015975;28;20225;-68
2023/08/07 09:30:09;;;;;;;10.00;1.70;;;16.60;99.90;;;;;;5036528;28;20208;-67
2023/08/07 09:32:36;;;;;;;5.50;1.90;;;16.60;99.90;;;;;;5035209;28;20209;-67
2023/08/07 09:35:07;;;;;;;6.43;1.80;;;16.60;99.90;;;;;;5028091;28;20262;-66
2023/08/07 09:37:36;;;;;;;6.97;1.70;;;16.70;99.90;;;;;;5034255;28;20197;-71
2023/08/07 09:40:04;;;;;;;4.93;1.92;;;16.80;99.90;;;;;;5034999;28;20237;-66
2023/08/07 09:42:33;;;;;;;4.60;1.80;;;16.70;99.90;;;;;;5034710;28;20710;-66
2023/08/07 09:45:01;;;;;;;4.90;2.13;;;16.80;99.90;;;;;;5015395;28;20236;-66
2023/08/07 09:47:29;;;;;;;11.32;2.58;;;16.60;99.90;;;;;;5034678;28;20577;-66
2023/08/07 09:49:56;;;;;;;4.43;2.10;;;16.60;99.90;;;;;;5024561;28;20202;-66
2023/08/07 09:52:28;;;;;;;8.32;2.00;;;16.70;99.90;;;;;;5032537;28;20185;-65
2023/08/07 09:54:58;;;;;;;9.68;1.85;;;16.70;99.90;;;;;;5037777;28;20297;-66
2023/08/07 09:57:25;;;;;;;7.93;2.22;;;16.70;99.90;;;;;;5034487;28;20198;-66
2023/08/07 09:59:52;;;;;;;10.02;2.10;;;16.70;99.90;;;;;;5014985;28;20236;-66
2023/08/07 10:02:20;;;;;;;4.82;2.05;;;17.20;99.90;;;;;;5033243;28;20916;-66
2023/08/07 10:04:48;;;;;;;5.70;2.20;;;17.10;99.90;;;;;;5035158;28;20230;-66
2023/08/07 10:07:15;;;;;;;7.18;1.80;;;17.10;99.90;;;;;;5023879;28;20209;-66
2023/08/07 10:09:44;;;;;;;4.00;2.13;;;17.00;99.90;;;;;;5033662;28;20210;-66
2023/08/07 10:12:12;;;;;;;6.53;1.65;;;16.80;99.90;;;;;;5030579;28;20202;-71
2023/08/07 10:14:41;;;;;;;4.18;2.03;;;16.80;99.90;;;;;;5021160;28;20209;-66
2023/08/07 10:17:08;;;;;;;9.38;1.85;;;16.40;99.90;;;;;;5032572;28;20214;-66
2023/08/07 10:19:35;;;;;;;8.18;2.47;;;16.10;99.90;;;;;;5035131;28;20231;-66
2023/08/07 10:22:03;;;;;;;9.73;2.08;;;15.80;99.90;;;;;;5028181;28;20580;-66
2023/08/07 10:24:31;;;;;;;6.10;1.88;;;15.70;99.90;;;;;;5032299;28;20232;-66
2023/08/07 10:27:00;;;;;;;7.38;2.38;;;15.70;99.90;;;;;;5030167;28;20575;-65
2023/08/07 10:29:28;;;;;;;6.22;1.85;;;15.50;99.90;;;;;;5010019;28;20236;-66
2023/08/07 10:31:58;;;;;;;4.90;1.70;;;15.50;99.90;;;;;;5032243;28;20663;-65
2023/08/07 10:34:25;;;;;;;10.07;2.33;;;15.40;99.90;;;;;;5030410;28;20734;-65
2023/08/07 10:36:52;;;;;;;9.23;2.58;;;15.40;99.90;;;;;;5038603;28;20201;-65
2023/08/07 10:39:18;;;;;;;6.15;1.80;;;15.60;99.90;;;;;;5022232;28;20722;-66
2023/08/07 10:41:47;;;;;;;6.60;2.00;;;15.60;99.90;;;;;;5034941;28;20206;-65
2023/08/07 10:44:22;;;;;;;6.28;1.75;;;16.10;99.90;;;;;;5015363;28;20198;-66
2023/08/07 10:46:50;;;;;;;6.38;1.63;;;15.90;99.90;;;;;;5035969;28;20243;-66
2023/08/07 10:49:33;;;;;;;11.30;2.40;;;16.20;99.90;;;;;;5032102;28;20205;-66
2023/08/07 10:52:00;;;;;;;5.57;2.03;;;;;;;;;;5034184;28;20380;-66
2023/08/07 10:54:27;;;;;;;6.90;1.92;;;16.40;99.90;;;;;;5031034;28;20221;-66
2023/08/07 10:56:55;;;;;;;7.78;1.73;;;16.40;99.90;;;;;;5023731;28;20213;-66
2023/08/07 10:59:23;;;;;;;7.30;2.28;;;16.70;99.90;;;;;;5033289;28;20208;-66
2023/08/07 11:01:55;;;;;;;3.90;2.00;;;16.70;99.90;;;;;;5013266;28;20698;-65
2023/08/07 11:04:25;;;;;;;6.78;2.45;;;16.70;99.90;;;;;;5025862;28;20244;-66
2023/08/07 11:06:52;;;;;;;7.03;1.98;;;16.70;99.90;;;;;;5031944;28;20202;-66
2023/08/07 11:09:19;;;;;;;3.20;1.95;;;17.00;99.90;;;;;;5033092;28;20214;-66
2023/08/07 11:11:48;;;;;;;2.88;1.73;;;17.10;99.90;;;;;;5023660;28;20750;-66
2023/08/07 11:14:17;;;;;;;6.95;2.28;;;17.30;99.90;;;;;;5030859;28;20212;-66
2023/08/07 11:16:47;;;;;;;4.30;2.13;;;17.30;99.90;;;;;;5006424;28;20218;-66
2023/08/07 11:19:15;;;;;;;10.88;1.92;;;17.60;99.90;;;;;;5029014;28;20198;-66
2023/08/07 11:21:43;;;;;;;7.43;2.40;;;17.50;99.90;;;;;;5033980;28;20598;-65
2023/08/07 11:24:13;;;;;;;4.70;2.00;;;17.60;99.90;;;;;;5032110;28;20205;-66
2023/08/07 11:26:39;;;;;;;4.47;1.92;;;17.60;99.90;;;;;;5023393;28;20206;-65
2023/08/07 11:29:08;;;;;;;6.28;1.95;;;17.50;99.90;;;;;;5033516;28;20204;-69
2023/08/07 11:31:36;;;;;;;5.05;1.80;;;17.50;99.90;;;;;;5006214;28;20234;-65
2023/08/07 11:34:04;;;;;;;6.82;2.42;;;17.50;99.90;;;;;;5031492;28;20200;-65
2023/08/07 11:36:33;;;;;;;10.10;2.67;;;17.50;99.90;;;;;;5030292;28;20201;-66
2023/08/07 11:39:00;;;;;;;4.55;1.80;;;17.70;99.90;;;;;;5033103;28;20224;-65
2023/08/07 11:41:27;;;;;;;7.68;2.03;;;17.60;99.90;;;;;;5029137;28;20228;-65
2023/08/07 11:43:53;;;;;;;5.90;1.90;;;17.80;99.90;;;;;;5026008;28;20221;-65
2023/08/07 11:46:21;;;;;;;5.07;1.65;;;17.50;99.90;;;;;;5008800;28;20249;-65
2023/08/07 11:48:48;;;;;;;8.85;2.47;;;17.50;99.90;;;;;;5033517;28;20197;-65
2023/08/07 11:51:17;;;;;;;4.47;1.75;;;17.60;99.90;;;;;;5028077;28;20206;-66
2023/08/07 11:53:44;;;;;;;4.13;1.70;;;17.60;99.90;;;;;;5033561;28;20220;-65
2023/08/07 11:56:14;;;;;;;6.38;1.55;;;17.70;99.90;;;;;;5027315;28;20209;-66
2023/08/07 11:58:42;;;;;;;4.75;1.85;;;17.60;99.90;;;;;;5030697;28;20321;-65
2023/08/07 12:01:11;;;;;;;5.88;2.05;;;17.50;99.90;;;;;;5029435;28;20686;-65
2023/08/07 12:03:40;;;;;;;5.80;1.88;;;17.50;99.90;;;;;;5014182;28;20240;-65
2023/08/07 12:06:08;;;;;;;9.35;2.50;;;17.20;99.90;;;;;;5033443;28;20193;-66
2023/08/07 12:08:38;;;;;;;4.90;2.00;;;17.10;99.90;;;;;;5033439;28;20201;-65
2023/08/07 12:11:06;;;;;;;10.68;2.33;;;17.00;99.90;;;;;;5032989;28;20686;-65
2023/08/07 12:13:35;;;;;;;5.05;1.98;;;17.20;99.90;;;;;;5024427;28;20202;-65
2023/08/07 12:16:02;;;;;;;2.90;1.52;;;17.10;99.90;;;;;;5038142;28;20307;-66
2023/08/07 12:18:32;;;;;;;2.00;1.30;;;17.10;99.90;;;;;;5005368;28;20229;-65
2023/08/07 12:21:00;;;;;;;5.45;1.98;;;17.10;99.90;;;;;;5031327;28;20733;-65
2023/08/07 12:23:27;;;;;;;6.85;2.53;;;16.80;99.90;;;;;;5025258;28;20222;-65
2023/08/07 12:25:56;;;;;;;7.55;2.10;;;16.80;99.90;;;;;;5037637;28;20215;-65
2023/08/07 12:28:23;;;;;;;5.28;1.92;;;16.60;99.90;;;;;;5027705;28;20204;-65
2023/08/07 12:30:51;;;;;;;3.67;1.55;;;16.70;99.90;;;;;;5026113;28;20205;-65
2023/08/07 12:33:18;;;;;;;4.75;1.90;;;16.50;99.90;;;;;;5008384;28;20215;-66
2023/08/07 12:35:45;;;;;;;3.45;1.60;;;16.60;99.90;;;;;;5034354;28;20197;-65
2023/08/07 12:38:13;;;;;;;4.82;1.55;;;15.90;99.90;;;;;;5028707;28;20198;-66
2023/08/07 12:40:41;;;;;;;4.30;1.92;;;15.90;99.90;;;;;;5034369;28;20321;-65
2023/08/07 12:43:09;;;;;;;6.38;2.08;;;15.40;99.90;;;;;;5032538;28;20216;-67
2023/08/07 12:45:36;;;;;;;5.72;2.10;;;15.40;99.90;;;;;;5032118;28;20208;-65
2023/08/07 12:48:03;;;;;;;6.20;1.90;;;15.20;99.90;;;;;;5017164;28;20685;-65
2023/08/07 12:50:30;;;;;;;5.57;2.20;;;15.20;99.90;;;;;;5036245;28;20194;-65